Fort Pierce, Florida
Current Conditions -  °F | °C
As of 10:53 AM on Friday 28 Nov 2014 (Local Time) from KFPR Reporting Station
Clear Clear  
Wind Chill: 62°   Ceiling: Unl
Heat Index: 62°   Visibility: 10mi
Dew Point: 48°   Wind: 12mph
Humidity: 60%   Direction: 360°N
Pressure: 30.27"   Gusts: 21mph
Location:  27.45°N, 80.33°W
Report Text: KFPR 281553Z 36010G18KT 10SM CLR 17/09 A3027 RMK AO2 SLP251 T01670089
Loading
Personal Weather Stations






























Interactive Weather Map New forecast layout! Learn more

10-Day Weather Forecast

Advertisements
Track Severe Weather on mobile